Time;durP1;ratioP1;P1;durP2;ratioP2;P2;SDS_P1;SDS_P2;PMS_P1;PMS_P2;Temp;Humidity;BMP_temperature;BMP_pressure;BME280_temperature;BME280_humidity;BME280_pressure;Samples;Min_cycle;Max_cycle;Signal;HPM_P1;HPM_P2
2024/01/02 00:01:43;;;;;;;33.85;32.10;;;;;;;;;;5030493;28;20993;-62
2024/01/02 00:04:09;;;;;;;36.15;34.28;;;;;;;;;;5030067;28;20179;-63
2024/01/02 00:06:34;;;;;;;37.35;35.42;;;;;;;;;;5030418;28;20036;-64
2024/01/02 00:09:00;;;;;;;36.40;34.55;;;;;;;;;;5029403;28;20037;-64
2024/01/02 00:11:25;;;;;;;40.97;38.88;;;;;;;;;;5027763;28;20037;-64
2024/01/02 00:13:50;;;;;;;40.42;38.35;;;;;;;;;;5026343;28;20155;-64
2024/01/02 00:16:17;;;;;;;38.00;36.00;;;;;;;;;;5030493;28;20179;-64
2024/01/02 00:18:42;;;;;;;37.97;36.03;;;;;;;;;;5029819;28;20062;-63
2024/01/02 00:21:07;;;;;;;38.78;36.78;;;;;;;;;;5033327;28;20033;-63
2024/01/02 00:23:33;;;;;;;40.35;38.25;;;;;;;;;;5028339;28;20471;-64
2024/01/02 00:25:59;;;;;;;40.13;38.05;;;;;;;;;;5026403;28;20029;-63
2024/01/02 00:28:24;;;;;;;39.78;37.70;;;;;;;;;;5028436;28;20033;-63
2024/01/02 00:30:49;;;;;;;40.35;38.28;;;;;;;;;;5029526;28;20072;-63
2024/01/02 00:33:15;;;;;;;43.78;41.55;;;;;;;;;;5029734;28;20030;-64
2024/01/02 00:35:41;;;;;;;41.33;39.22;;;;;;;;;;5029833;28;20128;-64
2024/01/02 00:38:09;;;;;;;40.75;38.65;;;;;;;;;;5029533;28;20040;-64
2024/01/02 00:40:34;;;;;;;41.58;39.45;;;;;;;;;;5026193;28;20699;-64
2024/01/02 00:42:59;;;;;;;39.60;37.50;;;;;;;;;;5028615;28;20069;-64
2024/01/02 00:45:24;;;;;;;41.92;39.42;;;;;;;;;;5030064;28;20231;-64
2024/01/02 00:47:51;;;;;;;45.35;42.35;;;;;;;;;;5030027;28;20459;-64
2024/01/02 00:50:17;;;;;;;43.33;40.90;;;;;;;;;;5027679;28;20056;-64
2024/01/02 00:52:43;;;;;;;45.60;43.08;;;;;;;;;;5028253;28;20033;-64
2024/01/02 00:55:09;;;;;;;43.65;41.40;;;;;;;;;;5034772;28;20373;-63
2024/01/02 00:57:34;;;;;;;43.35;41.13;;;;;;;;;;5027296;28;20033;-63
2024/01/02 00:59:59;;;;;;;45.10;42.83;;;;;;;;;;5033722;28;20049;-64
2024/01/02 01:02:25;;;;;;;46.83;44.45;;;;;;;;;;5037763;28;20038;-64
2024/01/02 01:04:51;;;;;;;45.30;43.03;;;;;;;;;;5036588;28;20032;-64
2024/01/02 01:07:17;;;;;;;48.42;45.53;;;;;;;;;;5038290;28;20061;-64
2024/01/02 01:09:42;;;;;;;42.45;40.30;;;;;;;;;;5037611;28;20132;-64
2024/01/02 01:12:08;;;;;;;49.20;46.70;;;;;;;;;;5037344;28;20105;-64
2024/01/02 01:14:34;;;;;;;54.53;51.53;;;;;;;;;;5034964;28;20148;-64
2024/01/02 01:16:59;;;;;;;47.53;45.08;;;;;;;;;;5039699;28;20459;-64
2024/01/02 01:19:25;;;;;;;50.38;47.38;;;;;;;;;;5035648;28;20037;-65
2024/01/02 01:21:51;;;;;;;52.75;50.10;;;;;;;;;;5033522;28;20033;-63
2024/01/02 01:24:17;;;;;;;49.88;47.35;;;;;;;;;;5034592;28;20692;-63
2024/01/02 01:26:42;;;;;;;53.28;50.60;;;;;;;;;;5032383;28;20061;-63
2024/01/02 01:29:07;;;;;;;52.58;49.90;;;;;;;;;;5030123;28;20148;-62
2024/01/02 01:31:33;;;;;;;55.83;52.83;;;;;;;;;;5035476;28;20429;-62
2024/01/02 01:33:58;;;;;;;55.55;52.75;;;;;;;;;;5035340;28;20395;-62
2024/01/02 01:36:23;;;;;;;53.70;50.90;;;;;;;;;;5033328;28;20049;-62
2024/01/02 01:38:49;;;;;;;56.03;53.20;;;;;;;;;;5035156;28;20029;-63
2024/01/02 01:41:14;;;;;;;56.17;53.30;;;;;;;;;;5035755;28;20033;-63
2024/01/02 01:43:39;;;;;;;53.42;50.72;;;;;;;;;;5034629;28;20037;-64
2024/01/02 01:46:05;;;;;;;56.58;53.72;;;;;;;;;;5036500;28;20056;-63
2024/01/02 01:48:33;;;;;;;61.30;58.17;;;;;;;;;;5032304;28;20062;-63
2024/01/02 01:51:00;;;;;;;59.80;56.80;;;;;;;;;;5039417;28;20103;-64
2024/01/02 01:53:26;;;;;;;61.20;58.15;;;;;;;;;;5030588;28;20029;-63
2024/01/02 01:55:51;;;;;;;59.60;56.60;;;;;;;;;;5033339;28;20036;-64
2024/01/02 01:58:17;;;;;;;60.13;57.13;;;;;;;;;;5035730;28;20052;-64
2024/01/02 02:00:43;;;;;;;58.97;55.97;;;;;;;;;;5034698;28;20042;-64
2024/01/02 02:03:10;;;;;;;59.78;56.80;;;;;;;;;;5034838;28;20102;-64
2024/01/02 02:05:36;;;;;;;56.95;54.08;;;;;;;;;;5030521;28;20346;-64
2024/01/02 02:08:01;;;;;;;55.95;53.13;;;;;;;;;;5035923;28;20051;-63
2024/01/02 02:10:28;;;;;;;55.47;52.67;;;;;;;;;;5038037;28;20029;-63
2024/01/02 02:12:54;;;;;;;59.75;56.72;;;;;;;;;;5029328;28;20029;-64
2024/01/02 02:15:19;;;;;;;55.22;52.42;;;;;;;;;;5033935;28;20465;-64
2024/01/02 02:17:45;;;;;;;53.30;50.28;;;;;;;;;;5032891;28;20037;-64
2024/01/02 02:20:10;;;;;;;51.67;49.08;;;;;;;;;;5032143;28;20499;-64
2024/01/02 02:22:41;;;;;;;70.53;66.53;;;;;;;;;;5031267;28;20032;-64
2024/01/02 02:25:07;;;;;;;60.20;57.20;;;;;;;;;;5033918;28;20049;-64
2024/01/02 02:27:33;;;;;;;55.92;53.13;;;;;;;;;;5030916;28;20052;-66
2024/01/02 02:29:59;;;;;;;54.33;51.63;;;;;;;;;;5031666;28;20029;-66
2024/01/02 02:32:24;;;;;;;60.75;57.50;;;;;;;;;;5036566;28;20048;-66
2024/01/02 02:34:50;;;;;;;60.35;57.05;;;;;;;;;;5030663;28;20865;-65
2024/01/02 02:37:15;;;;;;;53.50;50.83;;;;;;;;;;5032057;28;20116;-65
2024/01/02 02:39:41;;;;;;;72.40;68.80;;;;;;;;;;5030731;28;20136;-65
2024/01/02 02:42:06;;;;;;;55.72;52.95;;;;;;;;;;5035436;28;20107;-66
2024/01/02 02:44:31;;;;;;;63.45;60.22;;;;;;;;;;5036678;28;20037;-66
2024/01/02 02:47:00;;;;;;;60.03;57.00;;;;;;;;;;5030306;28;20026;-66
2024/01/02 02:49:26;;;;;;;63.80;59.22;;;;;;;;;;5034683;28;20049;-66
2024/01/02 02:51:51;;;;;;;59.13;55.85;;;;;;;;;;5031833;28;20033;-66
2024/01/02 02:54:16;;;;;;;51.65;49.05;;;;;;;;;;5034186;28;20515;-63
2024/01/02 02:56:43;;;;;;;50.72;48.13;;;;;;;;;;5033090;28;20048;-64
2024/01/02 02:59:09;;;;;;;54.28;51.58;;;;;;;;;;5032273;28;20158;-63
2024/01/02 03:01:35;;;;;;;47.90;44.55;;;;;;;;;;5028013;28;20037;-63
2024/01/02 03:04:00;;;;;;;46.97;44.60;;;;;;;;;;5031562;28;20100;-63
2024/01/02 03:06:25;;;;;;;45.13;42.85;;;;;;;;;;5028506;28;20033;-64
2024/01/02 03:08:51;;;;;;;48.78;46.22;;;;;;;;;;5034493;28;20033;-63
2024/01/02 03:11:17;;;;;;;49.88;47.38;;;;;;;;;;5030936;28;20041;-64
2024/01/02 03:13:42;;;;;;;46.30;43.90;;;;;;;;;;5027994;28;20068;-63
2024/01/02 03:16:09;;;;;;;43.38;41.15;;;;;;;;;;5031355;28;20037;-63
2024/01/02 03:18:35;;;;;;;49.70;47.03;;;;;;;;;;5033508;28;20051;-63
2024/01/02 03:21:00;;;;;;;45.17;42.83;;;;;;;;;;5036322;28;20041;-62
2024/01/02 03:23:25;;;;;;;47.45;45.05;;;;;;;;;;5032209;28;20021;-62
2024/01/02 03:25:51;;;;;;;44.40;42.15;;;;;;;;;;5030415;28;20039;-63
2024/01/02 03:28:16;;;;;;;44.97;42.67;;;;;;;;;;5032980;28;20102;-63
2024/01/02 03:30:42;;;;;;;44.83;42.53;;;;;;;;;;5026175;28;20041;-63
2024/01/02 03:33:07;;;;;;;45.08;42.78;;;;;;;;;;5029289;28;20036;-63
2024/01/02 03:35:33;;;;;;;43.78;41.55;;;;;;;;;;5030116;28;20026;-63
2024/01/02 03:37:58;;;;;;;45.33;42.92;;;;;;;;;;5034253;28;20029;-63
2024/01/02 03:40:23;;;;;;;47.60;44.80;;;;;;;;;;5031195;28;20495;-62
2024/01/02 03:42:49;;;;;;;44.15;41.92;;;;;;;;;;5029578;28;20403;-63
2024/01/02 03:45:14;;;;;;;45.38;43.08;;;;;;;;;;5031693;28;20065;-63
2024/01/02 03:47:39;;;;;;;43.53;41.33;;;;;;;;;;5029976;28;20051;-62
2024/01/02 03:50:05;;;;;;;44.88;42.58;;;;;;;;;;5034403;28;20028;-62
2024/01/02 03:52:31;;;;;;;46.17;43.85;;;;;;;;;;5030834;28;20082;-64
2024/01/02 03:54:57;;;;;;;47.53;45.10;;;;;;;;;;5027254;28;20037;-63
2024/01/02 03:57:23;;;;;;;43.85;41.63;;;;;;;;;;5027990;28;20056;-63
2024/01/02 03:59:48;;;;;;;45.28;42.95;;;;;;;;;;5028731;28;20065;-63
2024/01/02 04:02:13;;;;;;;44.75;42.25;;;;;;;;;;5032547;28;20041;-63
2024/01/02 04:04:39;;;;;;;44.72;42.47;;;;;;;;;;5029085;28;20033;-63
2024/01/02 04:07:04;;;;;;;45.35;43.05;;;;;;;;;;5032253;28;20025;-63
2024/01/02 04:09:29;;;;;;;45.97;43.67;;;;;;;;;;5030761;28;20144;-62
2024/01/02 04:11:54;;;;;;;43.95;41.72;;;;;;;;;;5026005;28;20131;-63
2024/01/02 04:14:20;;;;;;;42.20;40.00;;;;;;;;;;5028965;28;20493;-63
2024/01/02 04:16:45;;;;;;;44.80;42.50;;;;;;;;;;5028982;28;20048;-63
2024/01/02 04:19:11;;;;;;;43.50;41.30;;;;;;;;;;5031056;28;20345;-61
2024/01/02 04:21:36;;;;;;;46.17;43.88;;;;;;;;;;5026324;28;20628;-62
2024/01/02 04:24:01;;;;;;;42.63;40.42;;;;;;;;;;5029999;28;20037;-63
2024/01/02 04:26:26;;;;;;;45.13;42.83;;;;;;;;;;5039502;28;20029;-63
2024/01/02 04:28:52;;;;;;;47.65;45.25;;;;;;;;;;5031041;28;20447;-62
2024/01/02 04:31:17;;;;;;;51.13;48.53;;;;;;;;;;5027059;28;20481;-62
2024/01/02 04:33:43;;;;;;;51.92;49.33;;;;;;;;;;5028324;28;20041;-63
2024/01/02 04:36:08;;;;;;;46.72;44.38;;;;;;;;;;5027841;28;20030;-63
2024/01/02 04:38:33;;;;;;;46.95;44.55;;;;;;;;;;5028045;28;20033;-62
2024/01/02 04:40:59;;;;;;;49.75;47.25;;;;;;;;;;5032283;28;20036;-62
2024/01/02 04:43:25;;;;;;;47.83;45.40;;;;;;;;;;5030567;28;20056;-62
2024/01/02 04:45:53;;;;;;;43.70;41.50;;;;;;;;;;5030442;28;20060;-62
2024/01/02 04:48:18;;;;;;;45.28;42.97;;;;;;;;;;5024850;28;20042;-62
2024/01/02 04:50:43;;;;;;;53.50;50.80;;;;;;;;;;5022759;28;20045;-62
2024/01/02 04:53:09;;;;;;;50.20;47.63;;;;;;;;;;5026853;28;20047;-62
2024/01/02 04:55:34;;;;;;;51.55;48.95;;;;;;;;;;5030394;28;20450;-62
2024/01/02 04:58:01;;;;;;;51.63;49.03;;;;;;;;;;5026725;28;20526;-62
2024/01/02 05:00:26;;;;;;;49.28;46.78;;;;;;;;;;5024131;28;20057;-63
2024/01/02 05:02:52;;;;;;;52.42;49.83;;;;;;;;;;5028418;28;20044;-62
2024/01/02 05:05:18;;;;;;;52.70;50.05;;;;;;;;;;5026238;28;20026;-62
2024/01/02 05:07:43;;;;;;;54.58;51.83;;;;;;;;;;5036215;28;20580;-62
2024/01/02 05:10:09;;;;;;;51.25;48.65;;;;;;;;;;5027825;28;20045;-62
2024/01/02 05:12:34;;;;;;;54.40;51.67;;;;;;;;;;5021767;28;20052;-62
2024/01/02 05:15:00;;;;;;;53.47;50.78;;;;;;;;;;5025432;28;20061;-63
2024/01/02 05:17:25;;;;;;;57.17;54.30;;;;;;;;;;5025041;28;20052;-63
2024/01/02 05:19:51;;;;;;;62.63;59.53;;;;;;;;;;5028637;28;20103;-62
2024/01/02 05:22:16;;;;;;;63.47;60.15;;;;;;;;;;5022824;28;20030;-65
2024/01/02 05:24:42;;;;;;;53.72;51.05;;;;;;;;;;5025998;28;20052;-64
2024/01/02 05:27:07;;;;;;;52.30;49.67;;;;;;;;;;5023075;28;20043;-63
2024/01/02 05:29:35;;;;;;;50.83;48.25;;;;;;;;;;5026645;28;20464;-63
2024/01/02 05:32:01;;;;;;;48.20;45.72;;;;;;;;;;5022882;28;20540;-64
2024/01/02 05:34:29;;;;;;;50.85;48.28;;;;;;;;;;5028884;28;20061;-63
2024/01/02 05:36:54;;;;;;;45.28;42.97;;;;;;;;;;5024251;28;20025;-61
2024/01/02 05:39:20;;;;;;;49.97;47.47;;;;;;;;;;5027019;28;20036;-56
2024/01/02 05:41:45;;;;;;;49.15;46.65;;;;;;;;;;5025965;28;20538;-55
2024/01/02 05:44:10;;;;;;;46.53;44.20;;;;;;;;;;5025315;28;20053;-56
2024/01/02 05:46:36;;;;;;;49.15;46.63;;;;;;;;;;5026338;28;20087;-55
2024/01/02 05:49:01;;;;;;;46.08;43.78;;;;;;;;;;5029131;28;20041;-56
2024/01/02 05:51:26;;;;;;;47.53;45.13;;;;;;;;;;5028941;28;20175;-55
2024/01/02 05:53:51;;;;;;;52.47;49.85;;;;;;;;;;5028537;28;20041;-55
2024/01/02 05:56:17;;;;;;;46.70;44.30;;;;;;;;;;5031368;28;20045;-54
2024/01/02 05:58:43;;;;;;;41.83;39.72;;;;;;;;;;5032529;28;20045;-56
2024/01/02 06:01:08;;;;;;;44.90;42.60;;;;;;;;;;5032590;28;20044;-56
2024/01/02 06:03:33;;;;;;;43.03;40.83;;;;;;;;;;5033930;28;20048;-56
2024/01/02 06:05:58;;;;;;;40.75;38.65;;;;;;;;;;5033683;28;20028;-57
2024/01/02 06:08:24;;;;;;;38.72;36.72;;;;;;;;;;5030543;28;20124;-57
2024/01/02 06:10:49;;;;;;;42.80;40.60;;;;;;;;;;5031537;28;20535;-56
2024/01/02 06:13:15;;;;;;;43.00;40.70;;;;;;;;;;5032204;28;20128;-56
2024/01/02 06:15:40;;;;;;;40.35;38.28;;;;;;;;;;5034759;28;20055;-54
2024/01/02 06:18:06;;;;;;;43.33;41.13;;;;;;;;;;5031774;28;20534;-56
2024/01/02 06:20:31;;;;;;;45.08;42.78;;;;;;;;;;5032991;28;20690;-56
2024/01/02 06:22:56;;;;;;;45.53;43.13;;;;;;;;;;5033095;28;20589;-56
2024/01/02 06:25:22;;;;;;;41.25;39.15;;;;;;;;;;5031285;28;20029;-55
2024/01/02 06:27:47;;;;;;;41.97;39.88;;;;;;;;;;5031827;28;20098;-56
2024/01/02 06:30:13;;;;;;;43.30;41.10;;;;;;;;;;5033759;28;20111;-56
2024/01/02 06:32:38;;;;;;;42.72;40.53;;;;;;;;;;5036372;28;20033;-57
2024/01/02 06:35:04;;;;;;;44.15;41.90;;;;;;;;;;5029949;28;20045;-57
2024/01/02 06:37:29;;;;;;;43.08;40.88;;;;;;;;;;5032682;28;20037;-56
2024/01/02 06:39:55;;;;;;;43.25;41.05;;;;;;;;;;5030827;28;20059;-56
2024/01/02 06:42:20;;;;;;;43.38;41.17;;;;;;;;;;5031928;28;20052;-55
2024/01/02 06:44:46;;;;;;;41.70;39.60;;;;;;;;;;5030264;28;20583;-52
2024/01/02 06:47:11;;;;;;;44.50;42.22;;;;;;;;;;5027968;28;20616;-53
2024/01/02 06:49:37;;;;;;;42.53;40.33;;;;;;;;;;5035138;28;20052;-56
2024/01/02 06:52:02;;;;;;;39.22;37.22;;;;;;;;;;5034108;28;20635;-54
2024/01/02 06:54:27;;;;;;;37.65;35.75;;;;;;;;;;5033633;28;20164;-56
2024/01/02 06:56:53;;;;;;;40.85;38.75;;;;;;;;;;5027512;28;20423;-55
2024/01/02 06:59:18;;;;;;;38.88;36.88;;;;;;;;;;5030063;28;20068;-56
2024/01/02 07:01:44;;;;;;;38.25;36.28;;;;;;;;;;5034466;28;20067;-56
2024/01/02 07:04:09;;;;;;;36.85;34.95;;;;;;;;;;5034136;28;20037;-56
2024/01/02 07:06:35;;;;;;;37.90;35.95;;;;;;;;;;5031077;28;20451;-57
2024/01/02 07:09:00;;;;;;;38.65;36.65;;;;;;;;;;5032002;28;20048;-57
2024/01/02 07:11:25;;;;;;;36.25;34.38;;;;;;;;;;5033121;28;20114;-56
2024/01/02 07:13:51;;;;;;;39.08;37.05;;;;;;;;;;5030460;28;20190;-57
2024/01/02 07:16:16;;;;;;;35.75;33.65;;;;;;;;;;5029516;28;20029;-56
2024/01/02 07:18:42;;;;;;;35.28;33.47;;;;;;;;;;5032678;28;20054;-56
2024/01/02 07:21:07;;;;;;;35.35;33.55;;;;;;;;;;5034233;28;20041;-57
2024/01/02 07:23:33;;;;;;;33.28;31.58;;;;;;;;;;5029330;28;20112;-57
2024/01/02 07:25:59;;;;;;;33.25;31.55;;;;;;;;;;5034120;28;20021;-57
2024/01/02 07:28:25;;;;;;;34.40;32.60;;;;;;;;;;5029472;28;20106;-57
2024/01/02 07:30:51;;;;;;;34.85;33.05;;;;;;;;;;5030507;28;20060;-57
2024/01/02 07:33:16;;;;;;;35.22;33.42;;;;;;;;;;5031566;28;20174;-58
2024/01/02 07:35:42;;;;;;;34.90;33.10;;;;;;;;;;5031403;28;20170;-57
2024/01/02 07:38:07;;;;;;;32.60;30.90;;;;;;;;;;5030240;28;20494;-57
2024/01/02 07:40:33;;;;;;;32.90;31.20;;;;;;;;;;5028862;28;20061;-57
2024/01/02 07:42:58;;;;;;;32.65;30.98;;;;;;;;;;5029602;28;20120;-57
2024/01/02 07:45:24;;;;;;;34.83;33.03;;;;;;;;;;5032015;28;20030;-57
2024/01/02 07:47:49;;;;;;;35.17;33.38;;;;;;;;;;5032109;28;20044;-57
2024/01/02 07:50:15;;;;;;;34.15;32.40;;;;;;;;;;5029879;28;20060;-57
2024/01/02 07:52:40;;;;;;;35.65;33.85;;;;;;;;;;5027363;28;20048;-57
2024/01/02 07:55:08;;;;;;;34.95;33.15;;;;;;;;;;5028349;28;20041;-57
2024/01/02 07:57:34;;;;;;;33.78;32.05;;;;;;;;;;5024156;28;20064;-57
2024/01/02 07:59:59;;;;;;;34.92;33.13;;;;;;;;;;5026117;28;20075;-59
2024/01/02 08:02:24;;;;;;;34.78;32.97;;;;;;;;;;5023564;28;20045;-58
2024/01/02 08:04:50;;;;;;;33.25;31.55;;;;;;;;;;5029936;28;21363;-58
2024/01/02 08:07:15;;;;;;;36.25;34.40;;;;;;;;;;5024775;28;20030;-58
2024/01/02 08:09:41;;;;;;;32.83;31.13;;;;;;;;;;5025084;28;20033;-57
2024/01/02 08:12:07;;;;;;;33.58;31.88;;;;;;;;;;5025329;28;20042;-57
2024/01/02 08:14:32;;;;;;;31.83;30.17;;;;;;;;;;5026523;28;20049;-56
2024/01/02 08:16:57;;;;;;;35.90;34.10;;;;;;;;;;5029415;28;20099;-56
2024/01/02 08:19:23;;;;;;;33.95;32.22;;;;;;;;;;5024417;28;20041;-58
2024/01/02 08:21:48;;;;;;;33.05;31.35;;;;;;;;;;5024655;28;20067;-56
2024/01/02 08:24:13;;;;;;;34.22;32.42;;;;;;;;;;5027561;28;20045;-58
2024/01/02 08:26:39;;;;;;;33.55;31.85;;;;;;;;;;5025200;28;20033;-58
2024/01/02 08:29:04;;;;;;;33.38;31.67;;;;;;;;;;5028490;28;20030;-58
2024/01/02 08:31:30;;;;;;;34.88;33.08;;;;;;;;;;5026581;28;20485;-58
2024/01/02 08:33:55;;;;;;;33.25;31.55;;;;;;;;;;5024653;28;20064;-58
2024/01/02 08:36:21;;;;;;;35.65;33.75;;;;;;;;;;5024481;28;20043;-57
2024/01/02 08:38:46;;;;;;;35.92;34.08;;;;;;;;;;5026493;28;20459;-58
2024/01/02 08:41:11;;;;;;;36.40;34.50;;;;;;;;;;5025175;28;20052;-56
2024/01/02 08:43:37;;;;;;;38.97;36.90;;;;;;;;;;5030363;28;20880;-57
2024/01/02 08:46:02;;;;;;;41.95;39.83;;;;;;;;;;5024009;28;20037;-57
2024/01/02 08:48:28;;;;;;;39.40;37.40;;;;;;;;;;5028395;28;20033;-58
2024/01/02 08:50:53;;;;;;;39.00;37.00;;;;;;;;;;5031113;28;20144;-57
2024/01/02 08:53:18;;;;;;;38.72;36.72;;;;;;;;;;5025302;28;20121;-58
2024/01/02 08:55:44;;;;;;;41.25;39.05;;;;;;;;;;5031594;28;20057;-57
2024/01/02 08:58:10;;;;;;;45.33;43.03;;;;;;;;;;5029362;28;20039;-58
2024/01/02 09:00:35;;;;;;;43.08;40.88;;;;;;;;;;5026466;28;20045;-59
2024/01/02 09:03:02;;;;;;;42.85;40.65;;;;;;;;;;5026372;28;20037;-59
2024/01/02 09:05:27;;;;;;;46.88;44.47;;;;;;;;;;5025850;28;20037;-59
2024/01/02 09:07:53;;;;;;;50.17;47.65;;;;;;;;;;5030322;28;20470;-58
2024/01/02 09:10:19;;;;;;;50.42;47.92;;;;;;;;;;5023096;28;20039;-58
2024/01/02 09:12:44;;;;;;;55.00;52.20;;;;;;;;;;5026988;28;20083;-58
2024/01/02 09:15:10;;;;;;;56.65;53.75;;;;;;;;;;5027649;28;20041;-57
2024/01/02 09:17:35;;;;;;;59.33;56.35;;;;;;;;;;5024798;28;20649;-58
2024/01/02 09:20:03;;;;;;;56.75;53.90;;;;;;;;;;5027860;28;20136;-59
2024/01/02 09:22:28;;;;;;;62.33;59.20;;;;;;;;;;5027387;28;20106;-57
2024/01/02 09:24:54;;;;;;;63.28;60.10;;;;;;;;;;5032960;28;20042;-59
2024/01/02 09:27:20;;;;;;;67.72;64.35;;;;;;;;;;5029935;28;20045;-58
2024/01/02 09:29:45;;;;;;;68.85;65.43;;;;;;;;;;5030441;28;20044;-58
2024/01/02 09:32:11;;;;;;;72.10;68.50;;;;;;;;;;5030376;28;20119;-58
2024/01/02 09:34:37;;;;;;;72.00;68.45;;;;;;;;;;5032235;28;20038;-58
2024/01/02 09:37:04;;;;;;;76.50;72.70;;;;;;;;;;5032944;28;20099;-57
2024/01/02 09:39:29;;;;;;;71.45;67.90;;;;;;;;;;5031059;28;20584;-56
2024/01/02 09:41:57;;;;;;;74.53;70.80;;;;;;;;;;5033035;28;20065;-58
2024/01/02 09:44:38;;;;;;;74.40;70.70;;;;;;;;;;5032420;28;20459;-58
2024/01/02 09:47:21;;;;;;;71.87;68.27;;;;;;;;;;5034788;28;20033;-57
2024/01/02 09:50:10;;;;;;;76.35;72.55;;;;;;;;;;5033208;28;20281;-58
2024/01/02 09:52:59;;;;;;;74.53;70.82;;;;;;;;;;5031295;28;20063;-58
2024/01/02 09:55:47;;;;;;;74.90;71.18;;;;;;;;;;5024666;28;20463;-57
2024/01/02 09:58:25;;;;;;;73.28;69.63;;;;;;;;;;5016188;28;20071;-56
2024/01/02 10:01:09;;;;;;;83.53;79.40;;;;;;;;;;5030515;28;20112;-57
2024/01/02 10:03:53;;;;;;;81.70;77.65;;;;;;;;;;5031194;28;20113;-60
2024/01/02 10:06:47;;;;;;;77.80;73.93;;;;;;;;;;5031826;28;20467;-61
2024/01/02 10:09:23;;;;;;;78.60;74.70;;;;;;;;;;5025360;28;20483;-62
2024/01/02 10:12:29;;;;;;;84.00;79.85;;;;;;;;;;5034049;28;20112;-62
2024/01/02 10:15:01;;;;;;;80.45;76.47;;;;;;;;;;5033974;28;20068;-61
2024/01/02 10:17:48;;;;;;;92.63;88.05;;;;;;;;;;5028549;28;20042;-61
2024/01/02 10:20:24;;;;;;;83.18;79.05;;;;;;;;;;5032134;28;20032;-61
2024/01/02 10:22:53;;;;;;;89.75;85.30;;;;;;;;;;5033756;28;20359;-61
2024/01/02 10:25:21;;;;;;;94.93;90.22;;;;;;;;;;5031386;28;20030;-62
2024/01/02 10:28:13;;;;;;;91.80;87.25;;;;;;;;;;5033060;28;20082;-61
2024/01/02 10:30:48;;;;;;;93.47;88.88;;;;;;;;;;5032069;28;20042;-61
2024/01/02 10:33:20;;;;;;;91.90;87.35;;;;;;;;;;5031478;28;20037;-62
2024/01/02 10:35:53;;;;;;;91.75;87.22;;;;;;;;;;5031967;28;20033;-62
2024/01/02 10:39:04;;;;;;;91.70;87.18;;;;;;;;;;5031943;28;20025;-62
2024/01/02 10:41:34;;;;;;;90.40;85.95;;;;;;;;;;5021925;28;20116;-62
2024/01/02 10:44:18;;;;;;;93.03;88.43;;;;;;;;;;5033033;28;20188;-61
2024/01/02 10:47:08;;;;;;;100.22;95.30;;;;;;;;;;5029809;28;20043;-62
2024/01/02 10:49:40;;;;;;;100.07;95.13;;;;;;;;;;5026254;28;20048;-62
2024/01/02 10:52:15;;;;;;;97.95;93.10;;;;;;;;;;5026115;28;20049;-61
2024/01/02 10:54:55;;;;;;;96.15;91.40;;;;;;;;;;5033745;28;20044;-62
2024/01/02 10:57:36;;;;;;;95.65;90.93;;;;;;;;;;5029576;28;20044;-62
2024/01/02 11:00:07;;;;;;;92.05;87.50;;;;;;;;;;5028427;28;20416;-61
2024/01/02 11:02:51;;;;;;;88.97;84.55;;;;;;;;;;5030128;28;20509;-62
2024/01/02 11:05:23;;;;;;;89.93;85.47;;;;;;;;;;5030671;28;20048;-61
2024/01/02 11:08:26;;;;;;;95.35;90.65;;;;;;;;;;5031988;28;20039;-62
2024/01/02 11:10:57;;;;;;;90.53;86.05;;;;;;;;;;5024839;28;20041;-61
2024/01/02 11:13:25;;;;;;;89.50;85.07;;;;;;;;;;5032170;28;20036;-62
2024/01/02 11:15:58;;;;;;;90.85;86.35;;;;;;;;;;5032691;28;20040;-61
2024/01/02 11:18:27;;;;;;;99.65;94.75;;;;;;;;;;5030523;28;20056;-62
2024/01/02 11:21:05;;;;;;;98.70;93.80;;;;;;;;;;5030292;28;20037;-62
2024/01/02 11:23:38;;;;;;;100.43;95.45;;;;;;;;;;5027108;28;20037;-62
2024/01/02 11:26:14;;;;;;;101.57;96.55;;;;;;;;;;5029086;28;20053;-62
2024/01/02 11:28:41;;;;;;;105.95;100.72;;;;;;;;;;5032229;28;20056;-62
2024/01/02 11:31:09;;;;;;;103.63;98.53;;;;;;;;;;5027707;28;20061;-62
2024/01/02 11:33:45;;;;;;;98.05;93.18;;;;;;;;;;5028309;28;20025;-62
2024/01/02 11:36:32;;;;;;;98.72;93.82;;;;;;;;;;5040503;28;20417;-61
2024/01/02 11:39:15;;;;;;;96.25;91.50;;;;;;;;;;5028894;28;20402;-61
2024/01/02 11:42:11;;;;;;;101.47;96.50;;;;;;;;;;5030189;28;20459;-61
2024/01/02 11:45:04;;;;;;;89.53;85.10;;;;;;;;;;5028300;28;20715;-62
2024/01/02 11:47:52;;;;;;;90.95;86.45;;;;;;;;;;5029226;28;20082;-61
2024/01/02 11:50:18;;;;;;;98.40;93.53;;;;;;;;;;5028579;28;20041;-62
2024/01/02 11:53:03;;;;;;;93.97;89.32;;;;;;;;;;5025380;28;20377;-61
2024/01/02 11:55:44;;;;;;;92.75;88.15;;;;;;;;;;5029370;28;20128;-62
2024/01/02 11:58:30;;;;;;;91.00;86.50;;;;;;;;;;5027307;28;20128;-61
2024/01/02 12:01:18;;;;;;;92.10;87.55;;;;;;;;;;5034472;28;20056;-61
2024/01/02 12:03:57;;;;;;;90.30;85.85;;;;;;;;;;5028900;28;20036;-62
2024/01/02 12:06:58;;;;;;;101.07;96.05;;;;;;;;;;5031195;28;20029;-62
2024/01/02 12:09:26;;;;;;;;;;;;;;;;;;5030870;28;20497;-62
2024/01/02 12:12:18;;;;;;;87.13;82.80;;;;;;;;;;5031390;28;19993;-62
2024/01/02 12:15:08;;;;;;;100.28;95.32;;;;;;;;;;5041634;28;20030;-63
2024/01/02 12:17:41;;;;;;;100.43;95.47;;;;;;;;;;5029159;28;20041;-63
2024/01/02 12:20:09;;;;;;;107.25;101.97;;;;;;;;;;5023811;28;20052;-62
2024/01/02 12:22:36;;;;;;;117.18;111.40;;;;;;;;;;5027652;28;20045;-63
2024/01/02 12:25:04;;;;;;;122.65;116.60;;;;;;;;;;5029346;28;20037;-63
2024/01/02 12:27:33;;;;;;;124.70;118.57;;;;;;;;;;5028708;28;20038;-63
2024/01/02 12:30:04;;;;;;;118.35;112.50;;;;;;;;;;5028199;28;20048;-63
2024/01/02 12:32:54;;;;;;;122.15;116.10;;;;;;;;;;5026677;28;20529;-63
2024/01/02 12:35:31;;;;;;;112.33;106.80;;;;;;;;;;5029748;28;20103;-63
2024/01/02 12:37:59;;;;;;;113.65;108.00;;;;;;;;;;5029639;28;20040;-64
2024/01/02 12:40:29;;;;;;;109.30;103.90;;;;;;;;;;5028573;28;20155;-64
2024/01/02 12:42:58;;;;;;;117.05;111.30;;;;;;;;;;5031895;28;20080;-64
2024/01/02 12:45:30;;;;;;;110.97;105.50;;;;;;;;;;5029153;28;20470;-65
2024/01/02 12:47:58;;;;;;;115.03;109.35;;;;;;;;;;5028518;28;20568;-64
2024/01/02 12:50:24;;;;;;;118.38;112.53;;;;;;;;;;5025468;28;20037;-64
2024/01/02 12:53:08;;;;;;;114.07;108.45;;;;;;;;;;5034507;28;20044;-64
2024/01/02 12:55:37;;;;;;;107.07;101.78;;;;;;;;;;5032709;28;20124;-63
2024/01/02 12:58:04;;;;;;;109.90;104.50;;;;;;;;;;5032159;28;20486;-64
2024/01/02 13:00:31;;;;;;;115.55;109.80;;;;;;;;;;5029123;28;20964;-64
2024/01/02 13:02:56;;;;;;;116.80;111.03;;;;;;;;;;5024574;28;20390;-64
2024/01/02 13:05:22;;;;;;;108.57;103.20;;;;;;;;;;5025898;28;20025;-63
2024/01/02 13:07:48;;;;;;;113.97;108.32;;;;;;;;;;5025484;28;20057;-63
2024/01/02 13:10:13;;;;;;;111.43;105.90;;;;;;;;;;5030994;28;20068;-63
2024/01/02 13:12:40;;;;;;;117.45;111.65;;;;;;;;;;5021934;28;20042;-63
2024/01/02 13:15:08;;;;;;;112.05;106.53;;;;;;;;;;5025677;28;20033;-63
2024/01/02 13:17:33;;;;;;;104.15;99.00;;;;;;;;;;5026580;28;20037;-63
2024/01/02 13:19:59;;;;;;;103.47;98.32;;;;;;;;;;5029990;28;20826;-63
2024/01/02 13:22:25;;;;;;;103.40;98.28;;;;;;;;;;5027065;28;20116;-63
2024/01/02 13:24:53;;;;;;;103.50;98.40;;;;;;;;;;5028613;28;20053;-63
2024/01/02 13:27:28;;;;;;;98.97;94.10;;;;;;;;;;5030341;28;20048;-64
2024/01/02 13:29:55;;;;;;;97.32;92.47;;;;;;;;;;5033463;28;20035;-63
2024/01/02 13:32:21;;;;;;;91.22;86.70;;;;;;;;;;5029059;28;20738;-64
2024/01/02 13:34:47;;;;;;;94.07;89.38;;;;;;;;;;5027787;28;20037;-64
2024/01/02 13:37:24;;;;;;;94.90;90.20;;;;;;;;;;5030270;28;20029;-63
2024/01/02 13:39:50;;;;;;;85.75;81.50;;;;;;;;;;5019782;28;20103;-61
2024/01/02 13:42:31;;;;;;;86.07;81.82;;;;;;;;;;5028338;28;20038;-61
2024/01/02 13:44:57;;;;;;;79.30;75.32;;;;;;;;;;5027298;28;20033;-60
2024/01/02 13:47:33;;;;;;;81.82;77.47;;;;;;;;;;5025109;28;20082;-61
2024/01/02 13:50:01;;;;;;;80.72;76.70;;;;;;;;;;5023253;28;20033;-61
2024/01/02 13:52:29;;;;;;;70.68;66.90;;;;;;;;;;5025203;28;20112;-61
2024/01/02 13:54:55;;;;;;;73.35;69.60;;;;;;;;;;5032748;28;20040;-63
2024/01/02 13:57:29;;;;;;;68.82;65.38;;;;;;;;;;5025859;28;20041;-62
2024/01/02 13:59:57;;;;;;;71.28;67.70;;;;;;;;;;5030233;28;20041;-63
2024/01/02 14:02:27;;;;;;;64.28;61.08;;;;;;;;;;5032630;28;20028;-63
2024/01/02 14:04:58;;;;;;;69.03;65.57;;;;;;;;;;5030137;28;20037;-63
2024/01/02 14:07:24;;;;;;;59.55;56.55;;;;;;;;;;5028680;28;20021;-63
2024/01/02 14:09:50;;;;;;;61.45;58.25;;;;;;;;;;5027040;28;20644;-63
2024/01/02 14:12:16;;;;;;;62.25;59.15;;;;;;;;;;5032666;28;20037;-62
2024/01/02 14:15:03;;;;;;;55.15;52.38;;;;;;;;;;5030067;28;21182;-62
2024/01/02 14:17:33;;;;;;;59.30;56.33;;;;;;;;;;5030742;28;20057;-62
2024/01/02 14:20:10;;;;;;;53.97;51.28;;;;;;;;;;5032461;28;20080;-61
2024/01/02 14:23:01;;;;;;;55.78;52.90;;;;;;;;;;5026861;28;20029;-62
2024/01/02 14:25:43;;;;;;;55.42;52.65;;;;;;;;;;5037478;28;20102;-61